Pacific City, OR (97135)

5:54 AM PDT on September 19, 2014 (GMT -0700)
Wi-Ne-Ma | Change Station
CLOSE
Current Station
Personal Weather Station
Location: Cloverdale, OR
Elevation: 64 ft
Nearby Weather Stations

Elev 64 ft 45.15 °N, 123.97 °W | Updated 4 minutes ago

Partly Cloudy
Partly Cloudy
56.8 °F
Feels Like 56.8 °F
N
0.0
Wind Variable Wind from NW
Gusts 0.0 mph

Today
High -- | Low -- °F
--% Chance of Precip.
Yesterday
High -- | Low -- °F
Precip. -- in
6:59 AM 7:18 PM
Waning Crescent, 19% visible
Pressure 30.06 in
Visibility 10.0 miles
Clouds Clear
Dew Point 55 °F
Humidity 93%
Rainfall 0.00 in
Snow Depth 0 in , 0 in , 0 in
UV 0 out of 12
Pollen 2.10 out of 12
Air Quality Not available.
Flu Activity Not available.
METAR KTMK 191235Z AUTO 00000KT 10SM CLR 12/12 A3006 RMK AO2

More Conditions Fewer Conditions

Pressure 30.06 in
Visibility 10.0 miles
Clouds Clear
Dew Point 55 °F
Humidity 93%
Rainfall 0.00 in
Snow Depth 0 in , 0 in , 0 in
UV 0 out of 12
Pollen 2.10 out of 12
Air Quality Not available.
Flu Activity Not available.
METAR KTMK 191235Z AUTO 00000KT 10SM CLR 12/12 A3006 RMK AO2

More Conditions Fewer Conditions

10-Day Weather Forecast

Almanac

Astronomy

Sep. 19, 2014 Rise Set
Actual Time 6:59 AM PDT 7:18 PM PDT
Civil Twilight 6:29 AM PDT 7:48 PM PDT
Nautical Twilight 5:55 AM PDT 8:22 PM PDT
Astronomical Twilight 5:19 AM PDT 8:58 PM PDT
Moon 2:40 AM PDT 4:59 PM PDT
Length of Visible Light 13h 18m
Length of Day
12h 19m
Tomorrow will be 3m 9s shorter.
Waning Crescent, 19% of the Moon is Illuminated
Today
Waning Crescent
Sep 24
New
Oct 1
First Quarter
Oct 8
Full
Oct 15
Last Quarter

Today's Extremes

State Highs State Lows

Community

WunderPhotos

Upload Photos

1,754,602 photos uploaded!

Nearby

Snow Depth

Station Depth Elevation
Bowman Springs 0 in 4580 ft
Strawberry 0 in 5760 ft
Mckenzie 0 in 4800 ft
Silver Creek 0 in 5720 ft
Fourmile Lake 0 in 6000 ft

Earthquake Activity

City Distance Mag. Time & Date
Morton, Washington 108 miles 3.0 5:43 AM PDT
2014-09-16
Minimum magnitude displayed is 2.5.

Coastal Water Temperatures

Place Temperature
Astoria, OR 64.0 °F
Westport, WA 59.0 °F

Nearby Weather Stations